createdAt,value
2023-03-06T00:00:34.501Z,96520.28
2023-03-06T00:03:03.841Z,96503.34
2023-03-06T00:05:30.414Z,96496.28
2023-03-06T00:07:57.075Z,96495.66
2023-03-06T00:10:28.254Z,96495.03
2023-03-06T00:12:56.362Z,96488.41
2023-03-06T00:15:23.216Z,96484.03
2023-03-06T00:17:49.609Z,96491.09
2023-03-06T00:20:16.471Z,96492.72
2023-03-06T00:22:42.900Z,96489.22
2023-03-06T00:25:15.996Z,96493.56
2023-03-06T00:27:42.608Z,96494.38
2023-03-06T00:30:12.082Z,96485.69
2023-03-06T00:32:38.496Z,96484.03
2023-03-06T00:35:05.304Z,96489.31
2023-03-06T00:37:31.845Z,96494.59
2023-03-06T00:39:58.324Z,96468.91
2023-03-06T00:42:24.694Z,96463.94
2023-03-06T00:44:51.111Z,96457.09
2023-03-06T00:47:17.456Z,96448.41
2023-03-06T00:49:44.722Z,96444.09
2023-03-06T00:52:11.655Z,96436.41
2023-03-06T00:54:38.051Z,96443.34
2023-03-06T00:57:04.558Z,96442.13
2023-03-06T00:59:31.035Z,96437.97
2023-03-06T01:01:57.435Z,96432.72
2023-03-06T01:04:23.816Z,96446.56
2023-03-06T01:06:50.372Z,96438.72
2023-03-06T01:09:16.813Z,96443.78
2023-03-06T01:11:43.236Z,96460.41
2023-03-06T01:14:09.869Z,96454.25
2023-03-06T01:16:36.255Z,96460.22
2023-03-06T01:19:02.821Z,96468.75
2023-03-06T01:21:29.424Z,96473.91
2023-03-06T01:23:55.812Z,96482.56
2023-03-06T01:26:22.166Z,96486.84
2023-03-06T01:28:48.735Z,96491.28
2023-03-06T01:31:15.179Z,96486.94
2023-03-06T01:33:41.576Z,96491.91
2023-03-06T01:36:09.285Z,96496.44
2023-03-06T01:38:35.659Z,96486.28
2023-03-06T01:41:03.469Z,96481.84
2023-03-06T01:43:37.516Z,96474.09
2023-03-06T01:46:22.661Z,96477.63
2023-03-06T01:48:49.967Z,96481.94
2023-03-06T01:51:16.372Z,96477.72
2023-03-06T01:53:43.563Z,96476.97
2023-03-06T01:56:10.899Z,96479.84
2023-03-06T01:58:38.000Z,96463.22
2023-03-06T02:01:04.463Z,96463.22
2023-03-06T02:03:30.869Z,96462.47
2023-03-06T02:05:57.238Z,96455.47
2023-03-06T02:08:23.765Z,96470.34
2023-03-06T02:10:58.093Z,96449.66
2023-03-06T02:13:24.532Z,96445.13
2023-03-06T02:15:50.876Z,96442.53
2023-03-06T02:18:17.462Z,96445.13
2023-03-06T02:21:05.087Z,96441.59
2023-03-06T02:23:32.578Z,96434.75
2023-03-06T02:25:59.033Z,96431.44
2023-03-06T02:28:25.515Z,96433.94
2023-03-06T02:30:53.072Z,96427.94
2023-03-06T02:33:21.556Z,96428.13
2023-03-06T02:36:01.656Z,96415.91
2023-03-06T02:38:33.734Z,96403.09
2023-03-06T02:41:00.144Z,96402.06
2023-03-06T02:43:28.946Z,96396.34
2023-03-06T02:45:55.355Z,96380.63
2023-03-06T02:48:21.744Z,96374.53
2023-03-06T02:50:48.241Z,96357.56
2023-03-06T02:53:15.757Z,96355.72
2023-03-06T02:55:42.117Z,96352.09
2023-03-06T02:58:08.624Z,96347.00
2023-03-06T03:00:35.033Z,96338.53
2023-03-06T03:03:01.502Z,96331.59
2023-03-06T03:05:28.095Z,96325.09
2023-03-06T03:07:54.473Z,96314.75
2023-03-06T03:10:20.817Z,96312.88
2023-03-06T03:12:47.183Z,96299.00
2023-03-06T03:15:13.721Z,96296.31
2023-03-06T03:17:40.418Z,96287.84
2023-03-06T03:20:09.235Z,96287.34
2023-03-06T03:22:35.614Z,96277.00
2023-03-06T03:25:02.045Z,96270.88
2023-03-06T03:27:28.608Z,96261.34
2023-03-06T03:29:57.422Z,96251.00
2023-03-06T03:32:24.155Z,96249.34
2023-03-06T03:34:50.778Z,96241.09
2023-03-06T03:37:17.424Z,96223.69
2023-03-06T03:39:43.769Z,96226.09
2023-03-06T03:42:10.609Z,96223.81
2023-03-06T03:44:37.011Z,96223.09
2023-03-06T03:47:03.506Z,96218.00
2023-03-06T03:49:30.131Z,96206.97
2023-03-06T03:51:56.543Z,96191.53
2023-03-06T03:54:23.206Z,96175.22
2023-03-06T03:56:49.590Z,96172.41
2023-03-06T03:59:15.930Z,96177.41
2023-03-06T04:01:42.318Z,96158.13
2023-03-06T04:04:08.878Z,96143.25
2023-03-06T04:06:35.244Z,96148.53
2023-03-06T04:09:01.595Z,96143.47
2023-03-06T04:11:28.212Z,96145.09
2023-03-06T04:13:54.575Z,96142.00
2023-03-06T04:16:20.965Z,96136.44
2023-03-06T04:18:47.554Z,96124.44
2023-03-06T04:21:13.958Z,96118.34
2023-03-06T04:23:40.314Z,96119.25
2023-03-06T04:26:06.959Z,96120.94
2023-03-06T04:28:33.413Z,96096.72
2023-03-06T04:30:59.796Z,96091.56
2023-03-06T04:33:26.239Z,96086.16
2023-03-06T04:35:52.613Z,96094.84
2023-03-06T04:38:18.973Z,96089.69
2023-03-06T04:40:45.576Z,96105.19
2023-03-06T04:43:12.249Z,96103.53
2023-03-06T04:45:38.674Z,96112.25
2023-03-06T04:48:05.355Z,96107.78
2023-03-06T04:50:32.602Z,96120.94
2023-03-06T04:53:00.875Z,96108.72
2023-03-06T04:55:27.686Z,96118.84
2023-03-06T04:57:54.060Z,96113.44
2023-03-06T05:00:22.868Z,96093.59
2023-03-06T05:02:49.789Z,96019.88
2023-03-06T05:05:16.287Z,95951.13
2023-03-06T05:07:42.701Z,95877.31
2023-03-06T05:10:12.020Z,95826.66
2023-03-06T05:12:39.274Z,95782.59
2023-03-06T05:15:06.246Z,95730.78
2023-03-06T05:17:32.831Z,95671.56
2023-03-06T05:19:59.276Z,95630.94
2023-03-06T05:22:25.788Z,95594.75
2023-03-06T05:24:52.570Z,95547.28
2023-03-06T05:27:18.945Z,95513.78
2023-03-06T05:29:45.477Z,95494.16
2023-03-06T05:32:12.180Z,95459.88
2023-03-06T05:34:39.587Z,95442.63
2023-03-06T05:37:06.118Z,95415.97
2023-03-06T05:39:32.535Z,95379.56
2023-03-06T05:41:58.920Z,95346.66
2023-03-06T05:44:29.861Z,95320.59
2023-03-06T05:46:56.258Z,95297.22
2023-03-06T05:49:22.642Z,95271.25
2023-03-06T05:51:48.997Z,95244.22
2023-03-06T05:54:15.422Z,95207.09
2023-03-06T05:56:42.901Z,95194.00
2023-03-06T05:59:09.477Z,95171.97
2023-03-06T06:01:36.017Z,95131.06
2023-03-06T06:04:02.365Z,95086.72
2023-03-06T06:06:28.719Z,95051.81
2023-03-06T06:08:55.240Z,95027.59
2023-03-06T06:11:21.579Z,95011.84
2023-03-06T06:13:48.473Z,94986.13
2023-03-06T06:16:19.423Z,94966.28
2023-03-06T06:18:45.821Z,94949.41
2023-03-06T06:21:12.691Z,94925.88
2023-03-06T06:23:39.226Z,94896.91
2023-03-06T06:26:06.319Z,94864.41
2023-03-06T06:28:33.399Z,94830.69
2023-03-06T06:31:00.132Z,94787.28
2023-03-06T06:33:26.657Z,94752.34
2023-03-06T06:35:53.254Z,94698.47
2023-03-06T06:38:19.943Z,94655.22
2023-03-06T06:41:04.258Z,94640.81
2023-03-06T06:43:32.896Z,94652.91
2023-03-06T06:46:19.573Z,94639.72
2023-03-06T06:48:48.369Z,94593.50
2023-03-06T06:51:14.868Z,94556.03
2023-03-06T06:53:41.209Z,94512.53
2023-03-06T06:56:07.787Z,94475.63
2023-03-06T06:58:34.175Z,94422.91
2023-03-06T07:01:07.881Z,94353.78
2023-03-06T07:03:34.559Z,94301.78
2023-03-06T07:06:01.008Z,94252.75
2023-03-06T07:08:27.399Z,94211.06
2023-03-06T07:10:54.053Z,94200.03
2023-03-06T07:13:20.502Z,94156.50
2023-03-06T07:15:46.931Z,94116.63
2023-03-06T07:18:13.554Z,94102.75
2023-03-06T07:20:39.961Z,94085.34
2023-03-06T07:23:08.177Z,94071.97
2023-03-06T07:25:34.711Z,94016.66
2023-03-06T07:28:01.168Z,93979.06
2023-03-06T07:30:27.794Z,93934.53
2023-03-06T07:32:57.737Z,93885.34
2023-03-06T07:35:24.531Z,93850.66
2023-03-06T07:37:51.460Z,93827.72
2023-03-06T07:40:19.576Z,93799.34
2023-03-06T07:42:46.263Z,93764.03
2023-03-06T07:45:13.874Z,93731.91
2023-03-06T07:47:40.634Z,93693.53
2023-03-06T07:50:07.717Z,93666.78
2023-03-06T07:52:34.393Z,93652.59
2023-03-06T07:55:00.804Z,93639.69
2023-03-06T07:57:27.152Z,93625.19
2023-03-06T07:59:53.655Z,93591.94
2023-03-06T08:02:20.252Z,93570.97
2023-03-06T08:04:52.560Z,93545.50
2023-03-06T08:07:18.982Z,93500.50
2023-03-06T08:09:45.679Z,93500.66
2023-03-06T08:12:12.103Z,93525.19
2023-03-06T08:14:38.528Z,93540.03
2023-03-06T08:17:05.319Z,93553.56
2023-03-06T08:19:31.739Z,93555.00
2023-03-06T08:21:58.130Z,93560.00
2023-03-06T08:24:24.746Z,93562.44
2023-03-06T08:26:51.153Z,93544.22
2023-03-06T08:29:17.572Z,93513.72
2023-03-06T08:31:45.531Z,93496.44
2023-03-06T08:34:22.150Z,93487.75
2023-03-06T08:36:48.713Z,93474.19
2023-03-06T08:39:15.106Z,93468.44
2023-03-06T08:41:42.166Z,93451.00
2023-03-06T08:44:08.798Z,93412.78
2023-03-06T08:46:35.286Z,93372.13
2023-03-06T08:49:01.769Z,93344.03
2023-03-06T08:51:29.156Z,93324.19
2023-03-06T08:53:56.172Z,93310.66
2023-03-06T08:56:24.822Z,93312.63
2023-03-06T08:58:52.104Z,93295.16
2023-03-06T09:01:21.110Z,93305.50
2023-03-06T09:03:47.669Z,93321.34
2023-03-06T09:06:14.371Z,93319.72
2023-03-06T09:08:43.081Z,93314.56
2023-03-06T09:11:12.864Z,93311.00
2023-03-06T09:13:39.390Z,93312.28
2023-03-06T09:16:06.162Z,93286.59
2023-03-06T09:18:32.528Z,93297.69
2023-03-06T09:20:58.941Z,93284.75
2023-03-06T09:23:25.387Z,93288.31
2023-03-06T09:25:55.656Z,93274.69
2023-03-06T09:28:22.239Z,93272.56
2023-03-06T09:30:48.659Z,93263.50
2023-03-06T09:33:15.285Z,93268.84
2023-03-06T09:35:55.164Z,93284.69
2023-03-06T09:38:23.436Z,93296.34
2023-03-06T09:41:00.041Z,93298.75
2023-03-06T09:43:36.859Z,93285.63
2023-03-06T09:46:18.425Z,93300.22
2023-03-06T09:49:00.886Z,93318.34
2023-03-06T09:51:54.114Z,93332.91
2023-03-06T09:54:22.561Z,93341.28
2023-03-06T09:56:49.605Z,93342.25
2023-03-06T09:59:23.804Z,93374.25
2023-03-06T10:01:57.357Z,93383.13
2023-03-06T10:04:37.481Z,93396.88
2023-03-06T10:07:15.742Z,93407.50
2023-03-06T10:09:46.276Z,93415.88
2023-03-06T10:13:00.965Z,93403.97
2023-03-06T10:15:35.997Z,93415.28
2023-03-06T10:18:03.632Z,93427.56
2023-03-06T10:21:18.665Z,93420.78
2023-03-06T10:23:58.549Z,93398.19
2023-03-06T10:26:26.710Z,93396.25
2023-03-06T10:29:05.333Z,93374.31
2023-03-06T10:31:31.980Z,93375.81
2023-03-06T10:34:13.554Z,93365.28
2023-03-06T10:36:41.210Z,93399.53
2023-03-06T10:39:15.689Z,93401.94
2023-03-06T10:41:42.762Z,93412.63
2023-03-06T10:44:12.626Z,93407.91
2023-03-06T10:46:43.741Z,93407.25
2023-03-06T10:49:35.526Z,93415.34
2023-03-06T10:52:07.310Z,93438.56
2023-03-06T10:54:37.972Z,93438.25
2023-03-06T10:57:30.993Z,93443.72
2023-03-06T11:00:15.257Z,93459.19
2023-03-06T11:02:41.788Z,93474.34
2023-03-06T11:05:20.598Z,93508.50
2023-03-06T11:07:55.016Z,93535.91
2023-03-06T11:10:23.224Z,93541.38
2023-03-06T11:13:20.492Z,93541.69
2023-03-06T11:16:25.497Z,93534.28
2023-03-06T11:19:04.138Z,93537.22
2023-03-06T11:21:34.902Z,93517.84
2023-03-06T11:24:07.156Z,93518.81
2023-03-06T11:26:40.566Z,93515.91
2023-03-06T11:29:38.486Z,93498.03
2023-03-06T11:32:16.654Z,93478.53
2023-03-06T11:34:50.260Z,93473.84
2023-03-06T11:37:43.229Z,93457.22
2023-03-06T11:40:21.017Z,93424.81
2023-03-06T11:43:08.157Z,93409.16
2023-03-06T11:45:37.444Z,93404.97
2023-03-06T11:48:20.839Z,93406.56
2023-03-06T11:50:47.396Z,93397.19
2023-03-06T11:53:18.923Z,93390.41
2023-03-06T11:55:51.406Z,93406.84
2023-03-06T11:58:42.699Z,93412.94
2023-03-06T12:01:16.834Z,93435.16
2023-03-06T12:03:58.321Z,93471.91
2023-03-06T12:06:39.839Z,93488.94
2023-03-06T12:09:12.613Z,93490.06
2023-03-06T12:11:53.940Z,93502.44
2023-03-06T12:14:27.987Z,93482.34
2023-03-06T12:16:58.617Z,93524.91
2023-03-06T12:19:46.422Z,93586.06
2023-03-06T12:22:27.105Z,93703.81
2023-03-06T12:25:21.507Z,93916.25
2023-03-06T12:28:08.124Z,94058.44
2023-03-06T12:30:47.549Z,94160.66
2023-03-06T12:33:26.091Z,94273.28
2023-03-06T12:36:19.896Z,94324.13
2023-03-06T12:39:07.435Z,94361.69
2023-03-06T12:41:43.863Z,94379.84
2023-03-06T12:44:14.364Z,94456.41
2023-03-06T12:46:46.668Z,94567.28
2023-03-06T12:49:33.407Z,94716.09
2023-03-06T12:52:00.000Z,94857.59
2023-03-06T12:54:28.555Z,94961.78
2023-03-06T12:56:55.571Z,95037.88
2023-03-06T12:59:42.693Z,95084.03
2023-03-06T13:02:58.292Z,95086.78
2023-03-06T13:05:49.512Z,95176.41
2023-03-06T13:08:44.330Z,95349.44
2023-03-06T13:11:35.492Z,95428.69
2023-03-06T13:14:18.818Z,95453.91
2023-03-06T13:16:45.202Z,95493.97
2023-03-06T13:19:19.341Z,95550.03
2023-03-06T13:22:25.407Z,95626.53
2023-03-06T13:25:17.057Z,95703.13
2023-03-06T13:27:55.655Z,95781.88
2023-03-06T13:30:23.857Z,95871.28
2023-03-06T13:32:52.722Z,95904.63
2023-03-06T13:35:34.549Z,95861.63
2023-03-06T13:38:01.106Z,95929.66
2023-03-06T13:40:32.215Z,96018.47
2023-03-06T13:43:03.708Z,95964.88
2023-03-06T13:45:34.034Z,96020.94
2023-03-06T13:48:24.934Z,95984.09
2023-03-06T13:50:47.639Z,95925.91
2023-03-06T13:53:40.522Z,95935.22
2023-03-06T13:56:34.744Z,96017.53
2023-03-06T13:59:14.453Z,95957.47
2023-03-06T14:01:40.912Z,96020.38
2023-03-06T14:04:16.197Z,95999.63
2023-03-06T14:07:24.558Z,96095.34
2023-03-06T14:09:54.408Z,96167.28
2023-03-06T14:12:32.465Z,96232.53
2023-03-06T14:15:00.505Z,96224.75
2023-03-06T14:17:30.141Z,96231.44
2023-03-06T14:19:59.690Z,96219.19
2023-03-06T14:22:26.121Z,96228.88
2023-03-06T14:25:04.717Z,96267.94
2023-03-06T14:28:05.684Z,96259.13
2023-03-06T14:30:38.816Z,96339.50
2023-03-06T14:33:10.977Z,96466.03
2023-03-06T14:35:37.359Z,96550.88
2023-03-06T14:38:04.840Z,96484.38
2023-03-06T14:40:42.039Z,96548.69
2023-03-06T14:43:24.658Z,96577.22
2023-03-06T14:45:56.151Z,96635.63
2023-03-06T14:48:22.933Z,96563.28
2023-03-06T14:50:56.080Z,96569.28
2023-03-06T14:53:28.081Z,96542.00
2023-03-06T14:56:04.928Z,96617.66
2023-03-06T14:58:36.376Z,96598.06
2023-03-06T15:01:05.288Z,96618.34
2023-03-06T15:03:48.379Z,96608.63
2023-03-06T15:06:38.225Z,96617.19
2023-03-06T15:09:08.528Z,96568.84
2023-03-06T15:11:57.820Z,96529.22
2023-03-06T15:14:30.128Z,96481.50
2023-03-06T15:16:56.508Z,96480.28
2023-03-06T15:19:23.019Z,96553.19
2023-03-06T15:21:51.083Z,96536.22
2023-03-06T15:24:31.488Z,96472.00
2023-03-06T15:27:03.450Z,96510.59
2023-03-06T15:29:29.863Z,96533.94
2023-03-06T15:32:16.330Z,96564.88
2023-03-06T15:34:42.792Z,96561.03
2023-03-06T15:37:28.588Z,96578.81
2023-03-06T15:40:09.080Z,96623.03
2023-03-06T15:42:35.683Z,96601.63
2023-03-06T15:45:12.632Z,96652.31
2023-03-06T15:47:39.025Z,96647.75
2023-03-06T15:50:13.603Z,96628.88
2023-03-06T15:52:39.981Z,96615.59
2023-03-06T15:55:06.532Z,96702.59
2023-03-06T15:57:33.478Z,96700.53
2023-03-06T15:59:59.909Z,96675.91
2023-03-06T16:02:26.283Z,96681.84
2023-03-06T16:04:53.178Z,96679.56
2023-03-06T16:07:20.547Z,96638.69
2023-03-06T16:09:47.339Z,96625.19
2023-03-06T16:12:18.136Z,96508.41
2023-03-06T16:14:45.488Z,96472.25
2023-03-06T16:17:12.263Z,96493.94
2023-03-06T16:19:38.700Z,96476.28
2023-03-06T16:22:05.049Z,96486.47
2023-03-06T16:24:32.315Z,96512.16
2023-03-06T16:27:00.428Z,96524.41
2023-03-06T16:29:27.506Z,96495.41
2023-03-06T16:31:55.103Z,96506.88
2023-03-06T16:34:21.739Z,96475.06
2023-03-06T16:36:48.578Z,96455.59
2023-03-06T16:39:16.509Z,96404.00
2023-03-06T16:41:42.935Z,96375.00
2023-03-06T16:44:10.146Z,96359.06
2023-03-06T16:46:41.637Z,96352.53
2023-03-06T16:49:13.566Z,96340.66
2023-03-06T16:51:40.398Z,96376.22
2023-03-06T16:54:06.808Z,96387.63
2023-03-06T16:56:33.168Z,96366.91
2023-03-06T16:58:59.549Z,96333.38
2023-03-06T17:01:25.984Z,96282.69
2023-03-06T17:03:52.380Z,96276.25
2023-03-06T17:06:21.870Z,96279.78
2023-03-06T17:08:48.970Z,96257.13
2023-03-06T17:11:15.512Z,96263.22
2023-03-06T17:13:41.886Z,96265.06
2023-03-06T17:16:09.419Z,96263.84
2023-03-06T17:18:36.005Z,96323.00
2023-03-06T17:21:02.428Z,96262.47
2023-03-06T17:23:29.579Z,96215.00
2023-03-06T17:26:28.418Z,96202.59
2023-03-06T17:28:56.037Z,96150.81
2023-03-06T17:31:24.418Z,96146.88
2023-03-06T17:34:00.536Z,96202.28
2023-03-06T17:36:28.258Z,96239.28
2023-03-06T17:38:58.598Z,96227.91
2023-03-06T17:41:25.026Z,96285.66
2023-03-06T17:43:52.327Z,96229.41
2023-03-06T17:46:18.845Z,96187.03
2023-03-06T17:48:45.376Z,96143.22
2023-03-06T17:51:11.771Z,96158.72
2023-03-06T17:53:38.498Z,96162.41
2023-03-06T17:56:06.371Z,96196.50
2023-03-06T17:58:32.953Z,96237.09
2023-03-06T18:00:59.413Z,96266.97
2023-03-06T18:03:25.828Z,96233.06
2023-03-06T18:06:02.287Z,96198.09
2023-03-06T18:08:28.854Z,96165.88
2023-03-06T18:11:05.456Z,96164.19
2023-03-06T18:13:32.653Z,96162.56
2023-03-06T18:15:59.420Z,96193.13
2023-03-06T18:18:27.296Z,96175.28
2023-03-06T18:20:53.701Z,96180.34
2023-03-06T18:23:20.147Z,96177.09
2023-03-06T18:25:46.518Z,96169.56
2023-03-06T18:28:13.344Z,96148.06
2023-03-06T18:30:41.233Z,96105.91
2023-03-06T18:33:08.022Z,96068.00
2023-03-06T18:35:34.711Z,96023.63
2023-03-06T18:38:01.098Z,95992.34
2023-03-06T18:40:27.466Z,95965.75
2023-03-06T18:42:54.077Z,95934.19
2023-03-06T18:45:20.565Z,95925.19
2023-03-06T18:47:46.920Z,95892.09
2023-03-06T18:50:17.312Z,95860.44
2023-03-06T18:52:44.102Z,95823.41
2023-03-06T18:55:10.595Z,95791.66
2023-03-06T18:57:36.963Z,95780.81
2023-03-06T19:00:03.890Z,95773.91
2023-03-06T19:02:30.596Z,95741.00
2023-03-06T19:04:57.456Z,95730.38
2023-03-06T19:07:24.591Z,95709.53
2023-03-06T19:09:50.950Z,95700.06
2023-03-06T19:12:17.614Z,95684.19
2023-03-06T19:14:44.272Z,95682.94
2023-03-06T19:17:10.657Z,95683.75
2023-03-06T19:19:37.032Z,95674.69
2023-03-06T19:22:03.424Z,95657.41
2023-03-06T19:24:29.811Z,95635.53
2023-03-06T19:26:56.193Z,95604.63
2023-03-06T19:29:22.538Z,95585.63
2023-03-06T19:31:50.703Z,95582.34
2023-03-06T19:34:17.196Z,95560.59
2023-03-06T19:36:44.447Z,95567.88
2023-03-06T19:39:10.852Z,95577.47
2023-03-06T19:41:37.233Z,95586.69
2023-03-06T19:44:05.687Z,95567.09
2023-03-06T19:46:32.199Z,95550.66
2023-03-06T19:48:59.944Z,95533.53
2023-03-06T19:51:26.692Z,95518.53
2023-03-06T19:53:53.100Z,95503.50
2023-03-06T19:56:23.625Z,95476.28
2023-03-06T19:58:50.024Z,95457.56
2023-03-06T20:01:18.348Z,95450.97
2023-03-06T20:03:44.819Z,95426.38
2023-03-06T20:06:15.863Z,95400.81
2023-03-06T20:08:42.811Z,95374.16
2023-03-06T20:11:22.269Z,95353.56
2023-03-06T20:13:48.720Z,95350.25
2023-03-06T20:16:18.574Z,95328.22
2023-03-06T20:18:45.454Z,95311.38
2023-03-06T20:21:12.967Z,95311.81
2023-03-06T20:23:39.425Z,95300.72
2023-03-06T20:26:10.183Z,95267.34
2023-03-06T20:28:37.470Z,95253.75
2023-03-06T20:31:13.382Z,95222.63
2023-03-06T20:33:39.916Z,95191.75
2023-03-06T20:36:17.501Z,95169.03
2023-03-06T20:38:43.912Z,95162.25
2023-03-06T20:41:21.045Z,95159.09
2023-03-06T20:43:47.524Z,95155.09
2023-03-06T20:46:14.095Z,95153.22
2023-03-06T20:48:41.136Z,95144.56
2023-03-06T20:51:21.277Z,95099.03
2023-03-06T20:53:48.914Z,95073.97
2023-03-06T20:56:16.468Z,95055.28
2023-03-06T20:58:42.881Z,95047.78
2023-03-06T21:01:09.298Z,95037.59
2023-03-06T21:03:35.674Z,95029.06
2023-03-06T21:06:02.036Z,95011.63
2023-03-06T21:08:28.427Z,95010.09
2023-03-06T21:10:54.987Z,94995.13
2023-03-06T21:13:21.392Z,94995.94
2023-03-06T21:15:47.814Z,94981.81
2023-03-06T21:18:14.322Z,94972.91
2023-03-06T21:20:41.043Z,94963.41
2023-03-06T21:23:10.771Z,94953.69
2023-03-06T21:25:37.126Z,94949.25
2023-03-06T21:28:03.610Z,94921.50
2023-03-06T21:30:30.222Z,94908.59
2023-03-06T21:32:56.604Z,94897.56
2023-03-06T21:35:23.001Z,94879.22
2023-03-06T21:37:49.418Z,94877.09
2023-03-06T21:40:15.988Z,94879.28
2023-03-06T21:42:42.367Z,94901.28
2023-03-06T21:45:09.173Z,94908.38
2023-03-06T21:47:38.699Z,94926.06
2023-03-06T21:50:06.429Z,94944.53
2023-03-06T21:52:32.811Z,94942.63
2023-03-06T21:54:59.158Z,94949.13
2023-03-06T21:57:25.524Z,94936.09
2023-03-06T21:59:52.194Z,94925.78
2023-03-06T22:02:20.287Z,94905.88
2023-03-06T22:04:51.056Z,94901.66
2023-03-06T22:07:17.430Z,94897.31
2023-03-06T22:09:43.824Z,94901.16
2023-03-06T22:12:10.168Z,94892.47
2023-03-06T22:14:36.624Z,94887.31
2023-03-06T22:17:03.056Z,94892.00
2023-03-06T22:19:29.782Z,94909.88
2023-03-06T22:21:56.244Z,94926.19
2023-03-06T22:24:22.681Z,94959.31
2023-03-06T22:26:49.032Z,95029.38
2023-03-06T22:29:15.399Z,95084.22
2023-03-06T22:31:41.789Z,95142.00
2023-03-06T22:34:08.164Z,95173.53
2023-03-06T22:36:34.574Z,95201.53
2023-03-06T22:39:01.599Z,95198.25
2023-03-06T22:41:28.032Z,95205.88
2023-03-06T22:43:58.560Z,95213.50
2023-03-06T22:46:25.027Z,95232.22
2023-03-06T22:48:51.457Z,95241.25
2023-03-06T22:51:19.511Z,95258.13
2023-03-06T22:53:46.395Z,95292.34
2023-03-06T22:56:14.831Z,95291.56
2023-03-06T22:58:41.280Z,95313.59
2023-03-06T23:01:08.406Z,95325.31
2023-03-06T23:03:36.160Z,95335.28
2023-03-06T23:06:06.309Z,95331.84
2023-03-06T23:08:32.649Z,95348.75
2023-03-06T23:10:59.003Z,95361.31
2023-03-06T23:13:25.383Z,95382.66
2023-03-06T23:15:51.784Z,95404.81
2023-03-06T23:18:18.179Z,95420.28
2023-03-06T23:20:44.815Z,95430.63
2023-03-06T23:23:11.279Z,95420.53
2023-03-06T23:25:37.621Z,95429.69
2023-03-06T23:28:04.033Z,95437.91
2023-03-06T23:30:30.466Z,95440.25
2023-03-06T23:32:56.983Z,95439.31
2023-03-06T23:35:23.554Z,95437.41
2023-03-06T23:37:50.225Z,95452.91
2023-03-06T23:40:16.755Z,95457.00
2023-03-06T23:42:43.314Z,95471.44
2023-03-06T23:45:10.326Z,95481.53
2023-03-06T23:47:36.683Z,95500.09
2023-03-06T23:50:03.553Z,95519.69
2023-03-06T23:52:29.912Z,95533.22
2023-03-06T23:54:56.277Z,95528.06
2023-03-06T23:57:22.659Z,95535.44
2023-03-06T23:59:49.028Z,95565.03
